sensor_id;sensor_type;location;lat;lon;timestamp;pressure;altitude;pressure_sealevel;temperature;humidity
49583;BME280;36329;48.816;44.624;2022-12-18T00:01:37;101867;;;1.3;100
49583;BME280;36329;48.816;44.624;2022-12-18T00:04:38;101866;;;1.4;100
49583;BME280;36329;48.816;44.624;2022-12-18T00:07:40;101864;;;1.4;100
49583;BME280;36329;48.816;44.624;2022-12-18T00:10:42;101861;;;1.4;100
49583;BME280;36329;48.816;44.624;2022-12-18T00:13:45;101858;;;1.3;100
49583;BME280;36329;48.816;44.624;2022-12-18T00:16:46;101863;;;1.4;100
49583;BME280;36329;48.816;44.624;2022-12-18T00:19:48;101865;;;1.4;100
49583;BME280;36329;48.816;44.624;2022-12-18T00:22:50;101873;;;1.5;100
49583;BME280;36329;48.816;44.624;2022-12-18T00:25:51;101874;;;1.5;100
49583;BME280;36329;48.816;44.624;2022-12-18T00:28:54;101868;;;1.5;100
49583;BME280;36329;48.816;44.624;2022-12-18T00:31:56;101860;;;1.5;100
49583;BME280;36329;48.816;44.624;2022-12-18T00:34:57;101852;;;1.4;100
49583;BME280;36329;48.816;44.624;2022-12-18T00:37:59;101841;;;1.4;100
49583;BME280;36329;48.816;44.624;2022-12-18T00:41:01;101840;;;1.4;100
49583;BME280;36329;48.816;44.624;2022-12-18T00:44:05;101842;;;1.4;100
49583;BME280;36329;48.816;44.624;2022-12-18T00:47:06;101847;;;1.4;100
49583;BME280;36329;48.816;44.624;2022-12-18T00:50:09;101856;;;1.3;100
49583;BME280;36329;48.816;44.624;2022-12-18T00:53:11;101839;;;1.4;100
49583;BME280;36329;48.816;44.624;2022-12-18T00:56:12;101837;;;1.4;100
49583;BME280;36329;48.816;44.624;2022-12-18T00:59:14;101832;;;1.4;100
49583;BME280;36329;48.816;44.624;2022-12-18T01:02:15;101818;;;1.3;100
49583;BME280;36329;48.816;44.624;2022-12-18T01:05:17;101825;;;1.3;100
49583;BME280;36329;48.816;44.624;2022-12-18T01:08:18;101828;;;1.4;100
49583;BME280;36329;48.816;44.624;2022-12-18T01:11:21;101809;;;1.4;100
49583;BME280;36329;48.816;44.624;2022-12-18T01:14:23;101828;;;1.4;100
49583;BME280;36329;48.816;44.624;2022-12-18T01:17:25;101833;;;1.3;100
49583;BME280;36329;48.816;44.624;2022-12-18T01:20:26;101837;;;1.4;100
49583;BME280;36329;48.816;44.624;2022-12-18T01:23:28;101829;;;1.4;100
49583;BME280;36329;48.816;44.624;2022-12-18T01:26:29;101833;;;1.3;100
49583;BME280;36329;48.816;44.624;2022-12-18T01:29:31;101827;;;1.6;100
49583;BME280;36329;48.816;44.624;2022-12-18T01:32:33;101824;;;1.7;100
49583;BME280;36329;48.816;44.624;2022-12-18T01:35:40;101826;;;1.6;100
49583;BME280;36329;48.816;44.624;2022-12-18T01:38:42;101827;;;1.6;100
49583;BME280;36329;48.816;44.624;2022-12-18T01:41:45;101816;;;1.8;100
49583;BME280;36329;48.816;44.624;2022-12-18T01:44:53;101823;;;1.9;100
49583;BME280;36329;48.816;44.624;2022-12-18T01:47:57;101817;;;1.8;100
49583;BME280;36329;48.816;44.624;2022-12-18T01:51:01;101817;;;1.7;100
49583;BME280;36329;48.816;44.624;2022-12-18T01:54:02;101816;;;1.7;100
49583;BME280;36329;48.816;44.624;2022-12-18T01:57:04;101811;;;1.7;100
49583;BME280;36329;48.816;44.624;2022-12-18T02:00:11;101816;;;1.7;100
49583;BME280;36329;48.816;44.624;2022-12-18T02:03:14;101816;;;1.6;100
49583;BME280;36329;48.816;44.624;2022-12-18T02:06:20;101820;;;1.6;100
49583;BME280;36329;48.816;44.624;2022-12-18T02:09:27;101822;;;1.6;100
49583;BME280;36329;48.816;44.624;2022-12-18T02:12:39;101810;;;1.6;100
49583;BME280;36329;48.816;44.624;2022-12-18T02:15:51;101806;;;1.5;100
49583;BME280;36329;48.816;44.624;2022-12-18T02:18:59;101807;;;1.5;100
49583;BME280;36329;48.816;44.624;2022-12-18T02:22:10;101818;;;1.5;100
49583;BME280;36329;48.816;44.624;2022-12-18T02:25:24;101816;;;1.5;100
49583;BME280;36329;48.816;44.624;2022-12-18T02:28:32;101815;;;1.5;100
49583;BME280;36329;48.816;44.624;2022-12-18T02:31:39;101819;;;1.5;100
49583;BME280;36329;48.816;44.624;2022-12-18T02:34:43;101818;;;1.6;100
49583;BME280;36329;48.816;44.624;2022-12-18T02:37:46;101818;;;1.7;100
49583;BME280;36329;48.816;44.624;2022-12-18T02:40:49;101821;;;1.6;100
49583;BME280;36329;48.816;44.624;2022-12-18T02:43:56;101815;;;1.7;100
49583;BME280;36329;48.816;44.624;2022-12-18T02:46:58;101814;;;1.7;100
49583;BME280;36329;48.816;44.624;2022-12-18T02:50:07;101793;;;1.7;100
49583;BME280;36329;48.816;44.624;2022-12-18T02:53:17;101796;;;1.6;100
49583;BME280;36329;48.816;44.624;2022-12-18T02:56:26;101791;;;1.6;100
49583;BME280;36329;48.816;44.624;2022-12-18T02:59:36;101800;;;1.8;100
49583;BME280;36329;48.816;44.624;2022-12-18T03:02:45;101798;;;1.6;100
49583;BME280;36329;48.816;44.624;2022-12-18T03:05:49;101785;;;1.6;100
49583;BME280;36329;48.816;44.624;2022-12-18T03:08:54;101787;;;1.6;100
49583;BME280;36329;48.816;44.624;2022-12-18T03:12:03;101779;;;1.6;100
49583;BME280;36329;48.816;44.624;2022-12-18T03:15:10;101781;;;1.6;100
49583;BME280;36329;48.816;44.624;2022-12-18T03:18:17;101784;;;1.5;100
49583;BME280;36329;48.816;44.624;2022-12-18T03:21:23;101774;;;1.6;100
49583;BME280;36329;48.816;44.624;2022-12-18T03:24:31;101770;;;1.6;100
49583;BME280;36329;48.816;44.624;2022-12-18T03:27:36;101776;;;1.6;100
49583;BME280;36329;48.816;44.624;2022-12-18T03:30:41;101770;;;1.6;100
49583;BME280;36329;48.816;44.624;2022-12-18T03:33:47;101775;;;1.6;100
49583;BME280;36329;48.816;44.624;2022-12-18T03:36:52;101793;;;1.6;100
49583;BME280;36329;48.816;44.624;2022-12-18T03:39:54;101801;;;1.7;100
49583;BME280;36329;48.816;44.624;2022-12-18T03:42:59;101798;;;1.7;100
49583;BME280;36329;48.816;44.624;2022-12-18T03:46:08;101783;;;1.6;100
49583;BME280;36329;48.816;44.624;2022-12-18T03:49:18;101790;;;1.6;100
49583;BME280;36329;48.816;44.624;2022-12-18T03:52:26;101783;;;1.6;100
49583;BME280;36329;48.816;44.624;2022-12-18T03:55:32;101775;;;1.6;100
49583;BME280;36329;48.816;44.624;2022-12-18T03:58:37;101759;;;1.6;100
49583;BME280;36329;48.816;44.624;2022-12-18T04:01:42;101753;;;1.5;100
49583;BME280;36329;48.816;44.624;2022-12-18T04:04:46;101771;;;1.5;100
49583;BME280;36329;48.816;44.624;2022-12-18T04:07:51;101771;;;1.5;100
49583;BME280;36329;48.816;44.624;2022-12-18T04:10:52;101766;;;1.5;100
49583;BME280;36329;48.816;44.624;2022-12-18T04:13:55;101771;;;1.5;100
49583;BME280;36329;48.816;44.624;2022-12-18T04:16:57;101772;;;1.6;100
49583;BME280;36329;48.816;44.624;2022-12-18T04:19:58;101774;;;1.7;100
49583;BME280;36329;48.816;44.624;2022-12-18T04:23:00;101776;;;1.7;100
49583;BME280;36329;48.816;44.624;2022-12-18T04:26:02;101777;;;1.6;100
49583;BME280;36329;48.816;44.624;2022-12-18T04:29:03;101765;;;1.7;100
49583;BME280;36329;48.816;44.624;2022-12-18T04:32:05;101767;;;1.5;100
49583;BME280;36329;48.816;44.624;2022-12-18T04:35:07;101763;;;1.6;100
49583;BME280;36329;48.816;44.624;2022-12-18T04:38:09;101770;;;1.6;100
49583;BME280;36329;48.816;44.624;2022-12-18T04:41:11;101762;;;1.6;100
49583;BME280;36329;48.816;44.624;2022-12-18T04:44:12;101767;;;1.6;100
49583;BME280;36329;48.816;44.624;2022-12-18T04:47:14;101765;;;1.6;100
49583;BME280;36329;48.816;44.624;2022-12-18T04:50:15;101779;;;1.6;100
49583;BME280;36329;48.816;44.624;2022-12-18T04:53:17;101756;;;1.6;100
49583;BME280;36329;48.816;44.624;2022-12-18T04:56:19;101755;;;1.6;100
49583;BME280;36329;48.816;44.624;2022-12-18T04:59:21;101763;;;1.5;100
49583;BME280;36329;48.816;44.624;2022-12-18T05:02:22;101769;;;1.7;100
49583;BME280;36329;48.816;44.624;2022-12-18T05:05:24;101768;;;1.7;100
49583;BME280;36329;48.816;44.624;2022-12-18T05:08:26;101770;;;1.6;100
49583;BME280;36329;48.816;44.624;2022-12-18T05:11:27;101786;;;1.7;100
49583;BME280;36329;48.816;44.624;2022-12-18T05:14:29;101774;;;1.7;100
49583;BME280;36329;48.816;44.624;2022-12-18T05:17:30;101770;;;1.7;100
49583;BME280;36329;48.816;44.624;2022-12-18T05:20:32;101757;;;1.8;100
49583;BME280;36329;48.816;44.624;2022-12-18T05:23:33;101763;;;1.8;100
49583;BME280;36329;48.816;44.624;2022-12-18T05:26:35;101780;;;1.7;100
49583;BME280;36329;48.816;44.624;2022-12-18T05:29:36;101764;;;1.7;100
49583;BME280;36329;48.816;44.624;2022-12-18T05:32:38;101776;;;1.7;100
49583;BME280;36329;48.816;44.624;2022-12-18T05:35:40;101789;;;1.7;100
49583;BME280;36329;48.816;44.624;2022-12-18T05:38:41;101794;;;1.7;100
49583;BME280;36329;48.816;44.624;2022-12-18T05:41:43;101802;;;1.9;100
49583;BME280;36329;48.816;44.624;2022-12-18T05:44:44;101797;;;1.9;100
49583;BME280;36329;48.816;44.624;2022-12-18T05:47:46;101798;;;1.9;100
49583;BME280;36329;48.816;44.624;2022-12-18T05:50:48;101799;;;1.9;100
49583;BME280;36329;48.816;44.624;2022-12-18T05:53:50;101806;;;1.8;100
49583;BME280;36329;48.816;44.624;2022-12-18T05:56:51;101818;;;2;100
49583;BME280;36329;48.816;44.624;2022-12-18T05:59:54;101805;;;2;100
49583;BME280;36329;48.816;44.624;2022-12-18T06:02:55;101807;;;2.2;100
49583;BME280;36329;48.816;44.624;2022-12-18T06:05:57;101812;;;2;100
49583;BME280;36329;48.816;44.624;2022-12-18T06:08:59;101813;;;2.1;100
49583;BME280;36329;48.816;44.624;2022-12-18T06:12:00;101814;;;2;100
49583;BME280;36329;48.816;44.624;2022-12-18T06:15:05;101822;;;2.1;100
49583;BME280;36329;48.816;44.624;2022-12-18T06:18:07;101829;;;2;100
49583;BME280;36329;48.816;44.624;2022-12-18T06:21:09;101829;;;2;100
49583;BME280;36329;48.816;44.624;2022-12-18T06:24:10;101826;;;1.9;100
49583;BME280;36329;48.816;44.624;2022-12-18T06:27:12;101835;;;2.1;100
49583;BME280;36329;48.816;44.624;2022-12-18T06:30:14;101834;;;2.1;100
49583;BME280;36329;48.816;44.624;2022-12-18T06:33:16;101820;;;2.3;100
49583;BME280;36329;48.816;44.624;2022-12-18T06:36:18;101816;;;2.3;100
49583;BME280;36329;48.816;44.624;2022-12-18T06:39:19;101805;;;2.3;100
49583;BME280;36329;48.816;44.624;2022-12-18T06:42:21;101802;;;2.2;100
49583;BME280;36329;48.816;44.624;2022-12-18T06:45:22;101798;;;2.2;100
49583;BME280;36329;48.816;44.624;2022-12-18T06:48:24;101804;;;2.1;100
49583;BME280;36329;48.816;44.624;2022-12-18T06:51:26;101802;;;2.2;100
49583;BME280;36329;48.816;44.624;2022-12-18T06:54:27;101803;;;2.2;100
49583;BME280;36329;48.816;44.624;2022-12-18T06:57:29;101796;;;2.1;100
49583;BME280;36329;48.816;44.624;2022-12-18T07:00:30;101787;;;2.1;100
49583;BME280;36329;48.816;44.624;2022-12-18T07:03:33;101791;;;2;100
49583;BME280;36329;48.816;44.624;2022-12-18T07:06:34;101770;;;2;100
49583;BME280;36329;48.816;44.624;2022-12-18T07:09:36;101762;;;2;100
49583;BME280;36329;48.816;44.624;2022-12-18T07:12:37;101745;;;1.9;100
49583;BME280;36329;48.816;44.624;2022-12-18T07:15:39;101703;;;1.8;100
49583;BME280;36329;48.816;44.624;2022-12-18T07:18:40;101717;;;1.8;100
49583;BME280;36329;48.816;44.624;2022-12-18T07:21:42;101736;;;1.8;100
49583;BME280;36329;48.816;44.624;2022-12-18T07:24:44;101713;;;1.8;100
49583;BME280;36329;48.816;44.624;2022-12-18T07:27:45;101711;;;1.8;100
49583;BME280;36329;48.816;44.624;2022-12-18T07:30:58;101752;;;1.9;100
49583;BME280;36329;48.816;44.624;2022-12-18T07:33:59;101742;;;2.1;100
49583;BME280;36329;48.816;44.624;2022-12-18T07:37:01;101750;;;2.2;100
49583;BME280;36329;48.816;44.624;2022-12-18T07:40:03;101741;;;2.2;100
49583;BME280;36329;48.816;44.624;2022-12-18T07:43:05;101731;;;2.2;100
49583;BME280;36329;48.816;44.624;2022-12-18T07:46:07;101734;;;2.3;100
49583;BME280;36329;48.816;44.624;2022-12-18T07:49:09;101736;;;2.4;100
49583;BME280;36329;48.816;44.624;2022-12-18T07:52:11;101732;;;2.4;100
49583;BME280;36329;48.816;44.624;2022-12-18T07:55:13;101748;;;2.3;100
49583;BME280;36329;48.816;44.624;2022-12-18T07:58:14;101739;;;2.5;100
49583;BME280;36329;48.816;44.624;2022-12-18T08:01:16;101750;;;2.5;100
49583;BME280;36329;48.816;44.624;2022-12-18T08:04:17;101727;;;2.6;100
49583;BME280;36329;48.816;44.624;2022-12-18T08:07:19;101721;;;2.5;100
49583;BME280;36329;48.816;44.624;2022-12-18T08:10:21;101725;;;2.6;100
49583;BME280;36329;48.816;44.624;2022-12-18T08:13:23;101730;;;2.8;100
49583;BME280;36329;48.816;44.624;2022-12-18T08:16:25;101723;;;2.7;100
49583;BME280;36329;48.816;44.624;2022-12-18T08:19:27;101711;;;2.6;100
49583;BME280;36329;48.816;44.624;2022-12-18T08:22:29;101714;;;2.6;100
49583;BME280;36329;48.816;44.624;2022-12-18T08:25:30;101709;;;2.6;100
49583;BME280;36329;48.816;44.624;2022-12-18T08:28:32;101703;;;2.6;100
49583;BME280;36329;48.816;44.624;2022-12-18T08:31:35;101675;;;2.5;100
49583;BME280;36329;48.816;44.624;2022-12-18T08:34:37;101669;;;2.4;100
49583;BME280;36329;48.816;44.624;2022-12-18T08:37:39;101678;;;2.5;100
49583;BME280;36329;48.816;44.624;2022-12-18T08:40:40;101692;;;2.6;100
49583;BME280;36329;48.816;44.624;2022-12-18T08:43:42;101685;;;2.6;100
49583;BME280;36329;48.816;44.624;2022-12-18T08:46:43;101692;;;2.6;100
49583;BME280;36329;48.816;44.624;2022-12-18T08:49:45;101716;;;2.7;100
49583;BME280;36329;48.816;44.624;2022-12-18T08:52:47;101696;;;2.8;100
49583;BME280;36329;48.816;44.624;2022-12-18T08:55:48;101702;;;2.8;100
49583;BME280;36329;48.816;44.624;2022-12-18T08:58:51;101696;;;3;100
49583;BME280;36329;48.816;44.624;2022-12-18T09:01:53;101687;;;2.8;100
49583;BME280;36329;48.816;44.624;2022-12-18T09:04:55;101686;;;2.9;100
49583;BME280;36329;48.816;44.624;2022-12-18T09:07:56;101674;;;3;100
49583;BME280;36329;48.816;44.624;2022-12-18T09:10:58;101686;;;3;100
49583;BME280;36329;48.816;44.624;2022-12-18T09:14:00;101679;;;3;100
49583;BME280;36329;48.816;44.624;2022-12-18T09:17:02;101663;;;3.1;100
49583;BME280;36329;48.816;44.624;2022-12-18T09:20:05;101659;;;3;100
49583;BME280;36329;48.816;44.624;2022-12-18T09:23:07;101660;;;3;100
49583;BME280;36329;48.816;44.624;2022-12-18T09:26:10;101656;;;3.1;100
49583;BME280;36329;48.816;44.624;2022-12-18T09:29:11;101655;;;3.1;100
49583;BME280;36329;48.816;44.624;2022-12-18T09:32:14;101636;;;3.1;100
49583;BME280;36329;48.816;44.624;2022-12-18T09:35:15;101667;;;3.1;100
49583;BME280;36329;48.816;44.624;2022-12-18T09:38:19;101652;;;3.1;100
49583;BME280;36329;48.816;44.624;2022-12-18T09:41:33;101665;;;3.2;100
49583;BME280;36329;48.816;44.624;2022-12-18T09:44:41;101649;;;3.3;100
49583;BME280;36329;48.816;44.624;2022-12-18T09:47:47;101647;;;3.2;100
49583;BME280;36329;48.816;44.624;2022-12-18T09:50:51;101629;;;3.3;100
49583;BME280;36329;48.816;44.624;2022-12-18T09:53:59;101636;;;3.3;100
49583;BME280;36329;48.816;44.624;2022-12-18T09:57:04;101635;;;3.3;100
49583;BME280;36329;48.816;44.624;2022-12-18T10:00:16;101628;;;3.2;100
49583;BME280;36329;48.816;44.624;2022-12-18T10:03:20;101632;;;3.2;100
49583;BME280;36329;48.816;44.624;2022-12-18T10:06:25;101625;;;3.3;100
49583;BME280;36329;48.816;44.624;2022-12-18T10:09:33;101639;;;3.3;100
49583;BME280;36329;48.816;44.624;2022-12-18T10:12:43;101624;;;3.3;100
49583;BME280;36329;48.816;44.624;2022-12-18T10:15:57;101624;;;3.4;100
49583;BME280;36329;48.816;44.624;2022-12-18T10:19:09;101625;;;3.3;100
49583;BME280;36329;48.816;44.624;2022-12-18T10:22:21;101612;;;3.5;100
49583;BME280;36329;48.816;44.624;2022-12-18T10:25:27;101608;;;3.5;100
49583;BME280;36329;48.816;44.624;2022-12-18T10:28:32;101604;;;3.4;100
49583;BME280;36329;48.816;44.624;2022-12-18T10:31:34;101609;;;3.5;100
49583;BME280;36329;48.816;44.624;2022-12-18T10:34:36;101607;;;3.5;100
49583;BME280;36329;48.816;44.624;2022-12-18T10:38:00;101592;;;3.5;100
49583;BME280;36329;48.816;44.624;2022-12-18T10:41:04;101589;;;3.5;100
49583;BME280;36329;48.816;44.624;2022-12-18T10:44:16;101588;;;3.5;100
49583;BME280;36329;48.816;44.624;2022-12-18T10:47:19;101576;;;3.4;100
49583;BME280;36329;48.816;44.624;2022-12-18T10:50:24;101584;;;3.5;100
49583;BME280;36329;48.816;44.624;2022-12-18T10:53:30;101577;;;3.4;100
49583;BME280;36329;48.816;44.624;2022-12-18T10:56:34;101581;;;3.5;100
49583;BME280;36329;48.816;44.624;2022-12-18T10:59:49;101565;;;3.5;100
49583;BME280;36329;48.816;44.624;2022-12-18T11:02:52;101569;;;3.5;100
49583;BME280;36329;48.816;44.624;2022-12-18T11:06:01;101567;;;3.6;100
49583;BME280;36329;48.816;44.624;2022-12-18T11:09:06;101557;;;3.6;100
49583;BME280;36329;48.816;44.624;2022-12-18T11:12:22;101547;;;3.6;100
49583;BME280;36329;48.816;44.624;2022-12-18T11:15:27;101563;;;3.6;100
49583;BME280;36329;48.816;44.624;2022-12-18T11:18:33;101564;;;3.7;100
49583;BME280;36329;48.816;44.624;2022-12-18T11:21:39;101551;;;3.8;100
49583;BME280;36329;48.816;44.624;2022-12-18T11:24:41;101551;;;3.8;100
49583;BME280;36329;48.816;44.624;2022-12-18T11:27:47;101579;;;4;100
49583;BME280;36329;48.816;44.624;2022-12-18T11:31:09;101578;;;4.1;100
49583;BME280;36329;48.816;44.624;2022-12-18T11:34:19;101574;;;4.1;100
49583;BME280;36329;48.816;44.624;2022-12-18T11:37:24;101569;;;4.1;100
49583;BME280;36329;48.816;44.624;2022-12-18T11:40:30;101566;;;4.2;100
49583;BME280;36329;48.816;44.624;2022-12-18T11:43:38;101565;;;4.2;100
49583;BME280;36329;48.816;44.624;2022-12-18T11:46:47;101561;;;4.3;100
49583;BME280;36329;48.816;44.624;2022-12-18T11:49:51;101554;;;4;100
49583;BME280;36329;48.816;44.624;2022-12-18T11:52:54;101544;;;4;100
49583;BME280;36329;48.816;44.624;2022-12-18T11:56:03;101531;;;4.1;100
49583;BME280;36329;48.816;44.624;2022-12-18T11:59:13;101542;;;4;100
49583;BME280;36329;48.816;44.624;2022-12-18T12:02:23;101524;;;4;100
49583;BME280;36329;48.816;44.624;2022-12-18T12:05:37;101531;;;4;100
49583;BME280;36329;48.816;44.624;2022-12-18T12:08:52;101517;;;3.9;100
49583;BME280;36329;48.816;44.624;2022-12-18T12:12:10;101522;;;4;100
49583;BME280;36329;48.816;44.624;2022-12-18T12:15:23;101529;;;4;100
49583;BME280;36329;48.816;44.624;2022-12-18T12:18:37;101534;;;4;100
49583;BME280;36329;48.816;44.624;2022-12-18T12:21:49;101524;;;4;100
49583;BME280;36329;48.816;44.624;2022-12-18T12:25:00;101537;;;3.9;100
49583;BME280;36329;48.816;44.624;2022-12-18T12:28:13;101532;;;3.9;100
49583;BME280;36329;48.816;44.624;2022-12-18T12:31:25;101538;;;3.9;100
49583;BME280;36329;48.816;44.624;2022-12-18T12:34:41;101540;;;4;100
49583;BME280;36329;48.816;44.624;2022-12-18T12:37:51;101545;;;3.8;100
49583;BME280;36329;48.816;44.624;2022-12-18T12:40:59;101546;;;3.9;100
49583;BME280;36329;48.816;44.624;2022-12-18T12:44:07;101538;;;3.9;100
49583;BME280;36329;48.816;44.624;2022-12-18T12:47:14;101534;;;4;100
49583;BME280;36329;48.816;44.624;2022-12-18T12:50:20;101533;;;4;100
49583;BME280;36329;48.816;44.624;2022-12-18T12:53:28;101545;;;3.8;100
49583;BME280;36329;48.816;44.624;2022-12-18T12:56:38;101549;;;3.8;100
49583;BME280;36329;48.816;44.624;2022-12-18T12:59:47;101543;;;3.8;100
49583;BME280;36329;48.816;44.624;2022-12-18T13:02:55;101547;;;3.8;100
49583;BME280;36329;48.816;44.624;2022-12-18T13:06:04;101553;;;3.9;100
49583;BME280;36329;48.816;44.624;2022-12-18T13:09:10;101555;;;3.8;100
49583;BME280;36329;48.816;44.624;2022-12-18T13:12:12;101562;;;3.9;100
49583;BME280;36329;48.816;44.624;2022-12-18T13:15:21;101570;;;3.9;100
49583;BME280;36329;48.816;44.624;2022-12-18T13:18:24;101563;;;3.9;100
49583;BME280;36329;48.816;44.624;2022-12-18T13:21:28;101556;;;3.8;100
49583;BME280;36329;48.816;44.624;2022-12-18T13:24:30;101553;;;3.8;100
49583;BME280;36329;48.816;44.624;2022-12-18T13:27:57;101554;;;3.9;100
49583;BME280;36329;48.816;44.624;2022-12-18T13:31:02;101546;;;3.8;100
49583;BME280;36329;48.816;44.624;2022-12-18T13:34:15;101552;;;3.9;100
49583;BME280;36329;48.816;44.624;2022-12-18T13:37:42;101543;;;4.1;100
49583;BME280;36329;48.816;44.624;2022-12-18T13:40:56;101543;;;4.1;100
49583;BME280;36329;48.816;44.624;2022-12-18T13:44:11;101534;;;4;100
49583;BME280;36329;48.816;44.624;2022-12-18T13:47:25;101527;;;4.1;100
49583;BME280;36329;48.816;44.624;2022-12-18T13:50:28;101534;;;4;100
49583;BME280;36329;48.816;44.624;2022-12-18T13:53:34;101512;;;3.9;100
49583;BME280;36329;48.816;44.624;2022-12-18T13:56:43;101517;;;3.9;100
49583;BME280;36329;48.816;44.624;2022-12-18T13:59:45;101522;;;4;100
49583;BME280;36329;48.816;44.624;2022-12-18T14:02:47;101523;;;4;100
49583;BME280;36329;48.816;44.624;2022-12-18T14:05:56;101527;;;4;100
49583;BME280;36329;48.816;44.624;2022-12-18T14:08:59;101533;;;4.2;100
49583;BME280;36329;48.816;44.624;2022-12-18T14:12:01;101535;;;4.2;100
49583;BME280;36329;48.816;44.624;2022-12-18T14:15:06;101520;;;4.2;100
49583;BME280;36329;48.816;44.624;2022-12-18T14:18:18;101519;;;4.3;100
49583;BME280;36329;48.816;44.624;2022-12-18T14:21:23;101540;;;4.1;100
49583;BME280;36329;48.816;44.624;2022-12-18T14:24:26;101551;;;4.1;100
49583;BME280;36329;48.816;44.624;2022-12-18T14:27:27;101554;;;4.1;100
49583;BME280;36329;48.816;44.624;2022-12-18T14:30:31;101553;;;4.2;100
49583;BME280;36329;48.816;44.624;2022-12-18T14:33:33;101549;;;4.2;100
49583;BME280;36329;48.816;44.624;2022-12-18T14:36:34;101556;;;4.3;100
49583;BME280;36329;48.816;44.624;2022-12-18T14:39:36;101554;;;4.3;100
49583;BME280;36329;48.816;44.624;2022-12-18T14:42:38;101550;;;4.3;100
49583;BME280;36329;48.816;44.624;2022-12-18T14:45:41;101540;;;4.4;100
49583;BME280;36329;48.816;44.624;2022-12-18T14:48:47;101542;;;4.4;100
49583;BME280;36329;48.816;44.624;2022-12-18T14:51:50;101544;;;4.4;100
49583;BME280;36329;48.816;44.624;2022-12-18T14:54:53;101551;;;4.3;100
49583;BME280;36329;48.816;44.624;2022-12-18T14:57:57;101548;;;4.3;100
49583;BME280;36329;48.816;44.624;2022-12-18T15:00:59;101550;;;4.3;100
49583;BME280;36329;48.816;44.624;2022-12-18T15:04:02;101548;;;4.3;100
49583;BME280;36329;48.816;44.624;2022-12-18T15:07:08;101535;;;4.2;100
49583;BME280;36329;48.816;44.624;2022-12-18T15:10:15;101518;;;4.3;100
49583;BME280;36329;48.816;44.624;2022-12-18T15:13:22;101492;;;4.4;100
49583;BME280;36329;48.816;44.624;2022-12-18T15:16:24;101481;;;4.2;100
49583;BME280;36329;48.816;44.624;2022-12-18T15:19:33;101512;;;4;100
49583;BME280;36329;48.816;44.624;2022-12-18T15:22:36;101529;;;3.9;100
49583;BME280;36329;48.816;44.624;2022-12-18T15:25:38;101506;;;3.8;100
49583;BME280;36329;48.816;44.624;2022-12-18T15:28:44;101522;;;3.8;100
49583;BME280;36329;48.816;44.624;2022-12-18T15:31:59;101548;;;3.9;100
49583;BME280;36329;48.816;44.624;2022-12-18T15:35:03;101541;;;3.9;100
49583;BME280;36329;48.816;44.624;2022-12-18T15:38:06;101538;;;3.8;100
49583;BME280;36329;48.816;44.624;2022-12-18T15:41:11;101537;;;3.8;100
49583;BME280;36329;48.816;44.624;2022-12-18T15:44:22;101529;;;3.8;100
49583;BME280;36329;48.816;44.624;2022-12-18T15:47:24;101526;;;3.8;100
49583;BME280;36329;48.816;44.624;2022-12-18T15:50:26;101520;;;3.8;100
49583;BME280;36329;48.816;44.624;2022-12-18T15:53:31;101527;;;3.8;100
49583;BME280;36329;48.816;44.624;2022-12-18T15:56:33;101510;;;4.1;100
49583;BME280;36329;48.816;44.624;2022-12-18T15:59:35;101521;;;4;100
49583;BME280;36329;48.816;44.624;2022-12-18T16:02:36;101524;;;3.8;100
49583;BME280;36329;48.816;44.624;2022-12-18T16:05:38;101539;;;3.8;100
49583;BME280;36329;48.816;44.624;2022-12-18T16:08:39;101541;;;3.9;100
49583;BME280;36329;48.816;44.624;2022-12-18T16:11:42;101542;;;3.8;100
49583;BME280;36329;48.816;44.624;2022-12-18T16:14:45;101550;;;3.8;100
49583;BME280;36329;48.816;44.624;2022-12-18T16:17:47;101549;;;3.8;100
49583;BME280;36329;48.816;44.624;2022-12-18T16:20:48;101543;;;3.8;100
49583;BME280;36329;48.816;44.624;2022-12-18T16:23:50;101553;;;3.7;100
49583;BME280;36329;48.816;44.624;2022-12-18T16:26:53;101549;;;3.9;100
49583;BME280;36329;48.816;44.624;2022-12-18T16:29:55;101541;;;3.7;100
49583;BME280;36329;48.816;44.624;2022-12-18T16:32:57;101553;;;3.8;100
49583;BME280;36329;48.816;44.624;2022-12-18T16:35:59;101560;;;3.8;100
49583;BME280;36329;48.816;44.624;2022-12-18T16:39:01;101563;;;3.7;100
49583;BME280;36329;48.816;44.624;2022-12-18T16:42:05;101561;;;3.8;100
49583;BME280;36329;48.816;44.624;2022-12-18T16:45:09;101565;;;3.8;100
49583;BME280;36329;48.816;44.624;2022-12-18T16:48:12;101556;;;3.8;100
49583;BME280;36329;48.816;44.624;2022-12-18T16:51:14;101563;;;3.8;100
49583;BME280;36329;48.816;44.624;2022-12-18T16:54:19;101558;;;3.9;100
49583;BME280;36329;48.816;44.624;2022-12-18T16:57:22;101553;;;3.8;100
49583;BME280;36329;48.816;44.624;2022-12-18T17:00:24;101534;;;3.8;100
49583;BME280;36329;48.816;44.624;2022-12-18T17:03:27;101542;;;3.7;100
49583;BME280;36329;48.816;44.624;2022-12-18T17:06:30;101532;;;3.7;100
49583;BME280;36329;48.816;44.624;2022-12-18T17:09:33;101534;;;3.7;100
49583;BME280;36329;48.816;44.624;2022-12-18T17:12:34;101537;;;3.8;100
49583;BME280;36329;48.816;44.624;2022-12-18T17:15:36;101532;;;3.9;100
49583;BME280;36329;48.816;44.624;2022-12-18T17:18:38;101543;;;4;100
49583;BME280;36329;48.816;44.624;2022-12-18T17:21:39;101542;;;4;100
49583;BME280;36329;48.816;44.624;2022-12-18T17:24:41;101537;;;4;100
49583;BME280;36329;48.816;44.624;2022-12-18T17:27:42;101536;;;4;100
49583;BME280;36329;48.816;44.624;2022-12-18T17:30:44;101540;;;4.1;100